San Clemente, CA (92673)

1:50 AM PDT on July 25, 2016 (GMT -0700)
APRSWXNET | | Change Station

Elev 492 ft 33.47 °N, 117.61 °W | Updated 218 days ago

Clear
Clear
70 °F
Feels Like 70 °F
N
2
Wind Variable Wind from ESE
Gusts mph

Today
High -- | Low -- °F
--% Chance of Precip.
Yesterday
High -- | Low -- °F
Precip. -- in
Pressure 30.17 in
Visibility 6.0 miles
Clouds Clear
Dew Point 65 °F
Humidity 84%
Rainfall in
Snow Depth Not available.
5:58 AM 7:55 PM
Waning Gibbous, 68% visible
METAR KNXF 250756Z AUTO 00000KT 6SM HZ CLR 22/19 A2992 RMK AO2 SLP214 T02170189 402670200 $
Pressure 30.17 in
Visibility 6.0 miles
Clouds Clear
Dew Point 65 °F
Humidity 84%
Rainfall in
Snow Depth Not available.
5:58 AM 7:55 PM
Waning Gibbous, 68% visible
METAR KNXF 250756Z AUTO 00000KT 6SM HZ CLR 22/19 A2992 RMK AO2 SLP214 T02170189 402670200 $

10-Day Weather Forecast

Almanac

Astronomy

Jul. 25, 2016 Rise Set
Actual Time
Civil Twilight
Nautical Twilight
Astronomical Twilight
Moon
Length of Visible Light
Length of Day
Tomorrow will be .
, % of the Moon is Illuminated

Today's Extremes

State Highs State Lows

Community

WunderPhotos

Upload Photos

1,927,274 photos uploaded!

WunderBlog® & News

Nearby

Air Quality

  Air Quality AQ Index Pollutant
Not available.

Snow Depth

Station Depth Elevation

Earthquake Activity

City Distance Mag. Time & Date
Minimum magnitude displayed is 2.5.

Coastal Water Temperatures

Place Temperature

Stations

Nearby Weather Stations

Station Location Temp. Windchill Dew Point Humidity Wind Precip. Elev Updated Type
                   

Watches & Warnings

There are currently no watches in effect.